sensor_id;sensor_type;location;lat;lon;timestamp;P1;durP1;ratioP1;P2;durP2;ratioP2
6027;SDS011;3042;43.194;27.646;2023-04-03T00:01:06;27.93;;;25.53;;
6027;SDS011;3042;43.194;27.646;2023-04-03T00:03:35;34.20;;;28.13;;
6027;SDS011;3042;43.194;27.646;2023-04-03T00:06:02;29.33;;;26.60;;
6027;SDS011;3042;43.194;27.646;2023-04-03T00:08:31;27.27;;;25.23;;
6027;SDS011;3042;43.194;27.646;2023-04-03T00:10:58;30.60;;;28.10;;
6027;SDS011;3042;43.194;27.646;2023-04-03T00:13:25;27.27;;;25.00;;
6027;SDS011;3042;43.194;27.646;2023-04-03T00:15:52;27.90;;;25.70;;
6027;SDS011;3042;43.194;27.646;2023-04-03T00:18:19;25.93;;;24.23;;
6027;SDS011;3042;43.194;27.646;2023-04-03T00:20:48;27.87;;;25.07;;
6027;SDS011;3042;43.194;27.646;2023-04-03T00:23:15;50.93;;;27.30;;
6027;SDS011;3042;43.194;27.646;2023-04-03T00:25:43;28.67;;;25.77;;
6027;SDS011;3042;43.194;27.646;2023-04-03T00:28:10;25.87;;;23.97;;
6027;SDS011;3042;43.194;27.646;2023-04-03T00:30:37;34.83;;;25.67;;
6027;SDS011;3042;43.194;27.646;2023-04-03T00:33:04;28.30;;;25.70;;
6027;SDS011;3042;43.194;27.646;2023-04-03T00:35:31;27.47;;;25.10;;
6027;SDS011;3042;43.194;27.646;2023-04-03T00:37:59;27.50;;;25.30;;
6027;SDS011;3042;43.194;27.646;2023-04-03T00:40:26;27.53;;;25.23;;
6027;SDS011;3042;43.194;27.646;2023-04-03T00:42:55;26.83;;;24.70;;
6027;SDS011;3042;43.194;27.646;2023-04-03T00:45:29;28.23;;;25.93;;
6027;SDS011;3042;43.194;27.646;2023-04-03T00:47:59;29.20;;;26.60;;
6027;SDS011;3042;43.194;27.646;2023-04-03T00:50:30;27.17;;;25.33;;
6027;SDS011;3042;43.194;27.646;2023-04-03T00:53:02;27.30;;;25.10;;
6027;SDS011;3042;43.194;27.646;2023-04-03T00:55:30;30.40;;;26.40;;
6027;SDS011;3042;43.194;27.646;2023-04-03T00:57:57;27.03;;;25.03;;
6027;SDS011;3042;43.194;27.646;2023-04-03T01:00:26;26.17;;;24.27;;
6027;SDS011;3042;43.194;27.646;2023-04-03T01:02:54;34.43;;;26.53;;
6027;SDS011;3042;43.194;27.646;2023-04-03T01:05:21;28.80;;;26.23;;
6027;SDS011;3042;43.194;27.646;2023-04-03T01:07:49;29.40;;;26.57;;
6027;SDS011;3042;43.194;27.646;2023-04-03T01:10:18;29.53;;;26.83;;
6027;SDS011;3042;43.194;27.646;2023-04-03T01:12:47;27.90;;;26.00;;
6027;SDS011;3042;43.194;27.646;2023-04-03T01:15:16;27.20;;;25.30;;
6027;SDS011;3042;43.194;27.646;2023-04-03T01:17:45;38.27;;;26.50;;
6027;SDS011;3042;43.194;27.646;2023-04-03T01:23:29;44.10;;;29.27;;
6027;SDS011;3042;43.194;27.646;2023-04-03T01:26:05;30.00;;;27.30;;
6027;SDS011;3042;43.194;27.646;2023-04-03T01:28:33;27.40;;;24.90;;
6027;SDS011;3042;43.194;27.646;2023-04-03T01:31:03;28.67;;;26.00;;
6027;SDS011;3042;43.194;27.646;2023-04-03T01:33:39;45.13;;;26.27;;
6027;SDS011;3042;43.194;27.646;2023-04-03T01:36:06;28.73;;;26.33;;
6027;SDS011;3042;43.194;27.646;2023-04-03T01:38:36;28.67;;;26.50;;
6027;SDS011;3042;43.194;27.646;2023-04-03T01:41:03;30.17;;;27.43;;
6027;SDS011;3042;43.194;27.646;2023-04-03T01:43:30;29.13;;;26.80;;
6027;SDS011;3042;43.194;27.646;2023-04-03T01:45:57;28.00;;;25.53;;
6027;SDS011;3042;43.194;27.646;2023-04-03T01:48:24;29.97;;;27.37;;
6027;SDS011;3042;43.194;27.646;2023-04-03T01:50:53;29.17;;;26.97;;
6027;SDS011;3042;43.194;27.646;2023-04-03T01:53:20;44.37;;;26.80;;
6027;SDS011;3042;43.194;27.646;2023-04-03T01:55:48;27.70;;;25.40;;
6027;SDS011;3042;43.194;27.646;2023-04-03T01:58:14;28.30;;;25.83;;
6027;SDS011;3042;43.194;27.646;2023-04-03T02:00:41;28.83;;;26.00;;
6027;SDS011;3042;43.194;27.646;2023-04-03T02:03:08;26.80;;;24.83;;
6027;SDS011;3042;43.194;27.646;2023-04-03T02:05:35;29.60;;;26.43;;
6027;SDS011;3042;43.194;27.646;2023-04-03T02:08:04;27.87;;;25.67;;
6027;SDS011;3042;43.194;27.646;2023-04-03T02:10:31;30.80;;;28.30;;
6027;SDS011;3042;43.194;27.646;2023-04-03T02:12:58;31.93;;;29.33;;
6027;SDS011;3042;43.194;27.646;2023-04-03T02:15:25;28.33;;;25.87;;
6027;SDS011;3042;43.194;27.646;2023-04-03T02:17:52;29.77;;;26.93;;
6027;SDS011;3042;43.194;27.646;2023-04-03T02:20:19;29.80;;;26.97;;
6027;SDS011;3042;43.194;27.646;2023-04-03T02:22:47;29.00;;;26.20;;
6027;SDS011;3042;43.194;27.646;2023-04-03T02:25:15;27.47;;;25.20;;
6027;SDS011;3042;43.194;27.646;2023-04-03T02:27:43;29.70;;;27.20;;
6027;SDS011;3042;43.194;27.646;2023-04-03T02:30:10;28.03;;;25.70;;
6027;SDS011;3042;43.194;27.646;2023-04-03T02:32:38;30.80;;;26.87;;
6027;SDS011;3042;43.194;27.646;2023-04-03T02:35:06;29.00;;;26.17;;
6027;SDS011;3042;43.194;27.646;2023-04-03T02:37:33;29.93;;;27.33;;
6027;SDS011;3042;43.194;27.646;2023-04-03T02:40:00;30.67;;;27.53;;
6027;SDS011;3042;43.194;27.646;2023-04-03T02:42:29;31.60;;;28.50;;
6027;SDS011;3042;43.194;27.646;2023-04-03T02:44:56;30.77;;;27.93;;
6027;SDS011;3042;43.194;27.646;2023-04-03T02:47:23;31.30;;;28.30;;
6027;SDS011;3042;43.194;27.646;2023-04-03T02:49:50;57.57;;;29.20;;
6027;SDS011;3042;43.194;27.646;2023-04-03T02:52:17;41.80;;;27.67;;
6027;SDS011;3042;43.194;27.646;2023-04-03T02:54:44;31.60;;;28.00;;
6027;SDS011;3042;43.194;27.646;2023-04-03T02:57:11;31.77;;;26.53;;
6027;SDS011;3042;43.194;27.646;2023-04-03T02:59:40;29.67;;;26.77;;
6027;SDS011;3042;43.194;27.646;2023-04-03T03:02:07;29.73;;;27.00;;
6027;SDS011;3042;43.194;27.646;2023-04-03T03:04:34;49.33;;;28.13;;
6027;SDS011;3042;43.194;27.646;2023-04-03T03:07:01;30.77;;;28.03;;
6027;SDS011;3042;43.194;27.646;2023-04-03T03:09:28;35.60;;;28.90;;
6027;SDS011;3042;43.194;27.646;2023-04-03T03:11:55;31.30;;;28.53;;
6027;SDS011;3042;43.194;27.646;2023-04-03T03:14:23;31.07;;;28.40;;
6027;SDS011;3042;43.194;27.646;2023-04-03T03:16:51;30.57;;;27.97;;
6027;SDS011;3042;43.194;27.646;2023-04-03T03:19:18;29.83;;;27.27;;
6027;SDS011;3042;43.194;27.646;2023-04-03T03:21:45;30.27;;;27.67;;
6027;SDS011;3042;43.194;27.646;2023-04-03T03:24:12;31.30;;;28.00;;
6027;SDS011;3042;43.194;27.646;2023-04-03T03:26:40;29.50;;;26.80;;
6027;SDS011;3042;43.194;27.646;2023-04-03T03:29:07;29.40;;;26.80;;
6027;SDS011;3042;43.194;27.646;2023-04-03T03:31:34;30.50;;;27.70;;
6027;SDS011;3042;43.194;27.646;2023-04-03T03:34:03;35.17;;;31.63;;
6027;SDS011;3042;43.194;27.646;2023-04-03T03:36:30;31.17;;;27.90;;
6027;SDS011;3042;43.194;27.646;2023-04-03T03:38:56;29.97;;;26.97;;
6027;SDS011;3042;43.194;27.646;2023-04-03T03:41:23;31.67;;;28.67;;
6027;SDS011;3042;43.194;27.646;2023-04-03T03:43:50;33.40;;;28.50;;
6027;SDS011;3042;43.194;27.646;2023-04-03T03:46:17;30.53;;;27.37;;
6027;SDS011;3042;43.194;27.646;2023-04-03T03:48:44;30.67;;;28.17;;
6027;SDS011;3042;43.194;27.646;2023-04-03T03:51:12;32.13;;;29.13;;
6027;SDS011;3042;43.194;27.646;2023-04-03T03:53:39;34.03;;;30.63;;
6027;SDS011;3042;43.194;27.646;2023-04-03T03:56:06;30.90;;;27.93;;
6027;SDS011;3042;43.194;27.646;2023-04-03T03:58:33;32.57;;;29.47;;
6027;SDS011;3042;43.194;27.646;2023-04-03T04:01:00;35.27;;;32.00;;
6027;SDS011;3042;43.194;27.646;2023-04-03T04:03:28;39.73;;;36.23;;
6027;SDS011;3042;43.194;27.646;2023-04-03T04:05:55;32.73;;;29.73;;
6027;SDS011;3042;43.194;27.646;2023-04-03T04:08:23;31.33;;;28.13;;
6027;SDS011;3042;43.194;27.646;2023-04-03T04:10:51;30.03;;;27.13;;
6027;SDS011;3042;43.194;27.646;2023-04-03T04:13:17;30.10;;;27.20;;
6027;SDS011;3042;43.194;27.646;2023-04-03T04:15:44;58.97;;;31.17;;
6027;SDS011;3042;43.194;27.646;2023-04-03T04:18:11;36.73;;;26.93;;
6027;SDS011;3042;43.194;27.646;2023-04-03T04:20:38;31.17;;;28.17;;
6027;SDS011;3042;43.194;27.646;2023-04-03T04:23:05;56.47;;;26.50;;
6027;SDS011;3042;43.194;27.646;2023-04-03T04:25:33;27.37;;;24.87;;
6027;SDS011;3042;43.194;27.646;2023-04-03T04:28:00;27.53;;;24.90;;
6027;SDS011;3042;43.194;27.646;2023-04-03T04:30:27;30.17;;;27.23;;
6027;SDS011;3042;43.194;27.646;2023-04-03T04:32:54;29.10;;;25.93;;
6027;SDS011;3042;43.194;27.646;2023-04-03T04:35:21;33.40;;;30.73;;
6027;SDS011;3042;43.194;27.646;2023-04-03T04:37:48;32.43;;;28.23;;
6027;SDS011;3042;43.194;27.646;2023-04-03T04:40:15;37.93;;;26.23;;
6027;SDS011;3042;43.194;27.646;2023-04-03T04:42:43;35.60;;;27.60;;
6027;SDS011;3042;43.194;27.646;2023-04-03T04:45:10;45.00;;;28.43;;
6027;SDS011;3042;43.194;27.646;2023-04-03T04:47:37;32.67;;;29.53;;
6027;SDS011;3042;43.194;27.646;2023-04-03T04:50:04;27.93;;;25.23;;
6027;SDS011;3042;43.194;27.646;2023-04-03T04:52:32;28.57;;;25.67;;
6027;SDS011;3042;43.194;27.646;2023-04-03T04:54:59;28.93;;;25.97;;
6027;SDS011;3042;43.194;27.646;2023-04-03T04:57:26;56.33;;;35.87;;
6027;SDS011;3042;43.194;27.646;2023-04-03T04:59:54;47.37;;;31.50;;
6027;SDS011;3042;43.194;27.646;2023-04-03T05:02:21;33.03;;;26.67;;
6027;SDS011;3042;43.194;27.646;2023-04-03T05:04:48;56.40;;;28.47;;
6027;SDS011;3042;43.194;27.646;2023-04-03T05:07:17;31.57;;;26.97;;
6027;SDS011;3042;43.194;27.646;2023-04-03T05:09:44;30.87;;;24.80;;
6027;SDS011;3042;43.194;27.646;2023-04-03T05:12:10;27.43;;;24.50;;
6027;SDS011;3042;43.194;27.646;2023-04-03T05:14:37;31.53;;;26.13;;
6027;SDS011;3042;43.194;27.646;2023-04-03T05:17:06;29.10;;;26.50;;
6027;SDS011;3042;43.194;27.646;2023-04-03T05:19:33;25.40;;;22.73;;
6027;SDS011;3042;43.194;27.646;2023-04-03T05:22:00;37.37;;;22.73;;
6027;SDS011;3042;43.194;27.646;2023-04-03T05:24:27;25.00;;;22.40;;
6027;SDS011;3042;43.194;27.646;2023-04-03T05:27:13;25.23;;;22.70;;
6027;SDS011;3042;43.194;27.646;2023-04-03T05:29:39;24.50;;;22.07;;
6027;SDS011;3042;43.194;27.646;2023-04-03T05:32:10;23.83;;;21.60;;
6027;SDS011;3042;43.194;27.646;2023-04-03T05:34:37;23.70;;;21.87;;
6027;SDS011;3042;43.194;27.646;2023-04-03T05:37:04;36.47;;;24.90;;
6027;SDS011;3042;43.194;27.646;2023-04-03T05:39:31;52.30;;;25.57;;
6027;SDS011;3042;43.194;27.646;2023-04-03T05:41:58;28.63;;;23.50;;
6027;SDS011;3042;43.194;27.646;2023-04-03T05:44:25;26.87;;;23.97;;
6027;SDS011;3042;43.194;27.646;2023-04-03T05:46:52;32.17;;;24.50;;
6027;SDS011;3042;43.194;27.646;2023-04-03T05:49:20;42.40;;;26.20;;
6027;SDS011;3042;43.194;27.646;2023-04-03T05:51:47;26.80;;;24.10;;
6027;SDS011;3042;43.194;27.646;2023-04-03T05:54:16;92.90;;;30.30;;
6027;SDS011;3042;43.194;27.646;2023-04-03T05:56:48;92.90;;;30.30;;
6027;SDS011;3042;43.194;27.646;2023-04-03T05:59:15;33.63;;;21.80;;
6027;SDS011;3042;43.194;27.646;2023-04-03T06:01:42;24.37;;;21.83;;
6027;SDS011;3042;43.194;27.646;2023-04-03T06:04:09;22.93;;;20.97;;
6027;SDS011;3042;43.194;27.646;2023-04-03T06:06:44;25.87;;;21.60;;
6027;SDS011;3042;43.194;27.646;2023-04-03T06:09:12;45.40;;;32.80;;
6027;SDS011;3042;43.194;27.646;2023-04-03T06:11:39;27.93;;;20.20;;
6027;SDS011;3042;43.194;27.646;2023-04-03T06:14:06;81.93;;;23.73;;
6027;SDS011;3042;43.194;27.646;2023-04-03T06:16:34;23.47;;;19.57;;
6027;SDS011;3042;43.194;27.646;2023-04-03T06:19:01;21.60;;;19.87;;
6027;SDS011;3042;43.194;27.646;2023-04-03T06:21:29;20.43;;;18.77;;
6027;SDS011;3042;43.194;27.646;2023-04-03T06:23:57;32.23;;;20.13;;
6027;SDS011;3042;43.194;27.646;2023-04-03T06:26:24;22.67;;;20.23;;
6027;SDS011;3042;43.194;27.646;2023-04-03T06:28:52;22.83;;;20.70;;
6027;SDS011;3042;43.194;27.646;2023-04-03T06:31:19;20.30;;;18.93;;
6027;SDS011;3042;43.194;27.646;2023-04-03T06:33:46;21.00;;;19.30;;
6027;SDS011;3042;43.194;27.646;2023-04-03T06:36:13;23.23;;;18.90;;
6027;SDS011;3042;43.194;27.646;2023-04-03T06:38:44;19.60;;;18.30;;
6027;SDS011;3042;43.194;27.646;2023-04-03T06:41:13;20.80;;;19.17;;
6027;SDS011;3042;43.194;27.646;2023-04-03T06:43:41;51.43;;;22.80;;
6027;SDS011;3042;43.194;27.646;2023-04-03T06:46:11;100.70;;;28.33;;
6027;SDS011;3042;43.194;27.646;2023-04-03T06:48:40;19.83;;;18.53;;
6027;SDS011;3042;43.194;27.646;2023-04-03T06:51:17;21.33;;;19.43;;
6027;SDS011;3042;43.194;27.646;2023-04-03T06:53:46;22.57;;;19.20;;
6027;SDS011;3042;43.194;27.646;2023-04-03T06:56:15;19.57;;;18.23;;
6027;SDS011;3042;43.194;27.646;2023-04-03T06:58:42;19.53;;;18.13;;
6027;SDS011;3042;43.194;27.646;2023-04-03T07:01:10;34.17;;;20.47;;
6027;SDS011;3042;43.194;27.646;2023-04-03T07:03:39;53.20;;;22.27;;
6027;SDS011;3042;43.194;27.646;2023-04-03T07:06:06;21.90;;;20.00;;
6027;SDS011;3042;43.194;27.646;2023-04-03T07:08:36;22.83;;;18.57;;
6027;SDS011;3042;43.194;27.646;2023-04-03T07:11:03;39.47;;;22.07;;
6027;SDS011;3042;43.194;27.646;2023-04-03T07:13:32;19.60;;;18.40;;
6027;SDS011;3042;43.194;27.646;2023-04-03T07:15:59;19.07;;;17.77;;
6027;SDS011;3042;43.194;27.646;2023-04-03T07:18:27;21.60;;;19.50;;
6027;SDS011;3042;43.194;27.646;2023-04-03T07:20:54;19.67;;;17.83;;
6027;SDS011;3042;43.194;27.646;2023-04-03T07:23:21;23.87;;;19.50;;
6027;SDS011;3042;43.194;27.646;2023-04-03T07:25:48;20.37;;;18.47;;
6027;SDS011;3042;43.194;27.646;2023-04-03T07:28:17;46.27;;;21.20;;
6027;SDS011;3042;43.194;27.646;2023-04-03T07:30:47;20.43;;;18.60;;
6027;SDS011;3042;43.194;27.646;2023-04-03T07:33:15;19.10;;;17.90;;
6027;SDS011;3042;43.194;27.646;2023-04-03T07:35:44;27.03;;;21.90;;
6027;SDS011;3042;43.194;27.646;2023-04-03T07:38:12;30.90;;;20.90;;
6027;SDS011;3042;43.194;27.646;2023-04-03T07:40:39;33.13;;;22.50;;
6027;SDS011;3042;43.194;27.646;2023-04-03T07:43:06;28.87;;;19.50;;
6027;SDS011;3042;43.194;27.646;2023-04-03T07:45:34;20.53;;;17.20;;
6027;SDS011;3042;43.194;27.646;2023-04-03T07:48:03;37.10;;;21.63;;
6027;SDS011;3042;43.194;27.646;2023-04-03T07:50:31;18.60;;;17.37;;
6027;SDS011;3042;43.194;27.646;2023-04-03T07:52:58;53.27;;;24.13;;
6027;SDS011;3042;43.194;27.646;2023-04-03T07:55:25;45.87;;;21.30;;
6027;SDS011;3042;43.194;27.646;2023-04-03T07:57:52;58.90;;;24.50;;
6027;SDS011;3042;43.194;27.646;2023-04-03T08:00:20;23.77;;;21.50;;
6027;SDS011;3042;43.194;27.646;2023-04-03T08:02:48;21.60;;;19.10;;
6027;SDS011;3042;43.194;27.646;2023-04-03T08:05:17;55.83;;;23.97;;
6027;SDS011;3042;43.194;27.646;2023-04-03T08:07:45;22.10;;;20.50;;
6027;SDS011;3042;43.194;27.646;2023-04-03T08:10:13;20.73;;;19.27;;
6027;SDS011;3042;43.194;27.646;2023-04-03T08:12:40;19.37;;;17.80;;
6027;SDS011;3042;43.194;27.646;2023-04-03T08:15:08;44.90;;;21.93;;
6027;SDS011;3042;43.194;27.646;2023-04-03T08:17:35;20.37;;;18.87;;
6027;SDS011;3042;43.194;27.646;2023-04-03T08:20:02;19.20;;;18.00;;
6027;SDS011;3042;43.194;27.646;2023-04-03T08:22:33;38.80;;;22.73;;
6027;SDS011;3042;43.194;27.646;2023-04-03T08:25:00;18.17;;;17.00;;
6027;SDS011;3042;43.194;27.646;2023-04-03T08:27:27;30.70;;;20.40;;
6027;SDS011;3042;43.194;27.646;2023-04-03T08:29:54;41.97;;;22.20;;
6027;SDS011;3042;43.194;27.646;2023-04-03T08:32:22;29.97;;;23.20;;
6027;SDS011;3042;43.194;27.646;2023-04-03T08:34:50;18.30;;;17.30;;
6027;SDS011;3042;43.194;27.646;2023-04-03T08:37:17;20.23;;;18.63;;
6027;SDS011;3042;43.194;27.646;2023-04-03T08:39:46;18.73;;;17.20;;
6027;SDS011;3042;43.194;27.646;2023-04-03T08:42:15;18.63;;;17.33;;
6027;SDS011;3042;43.194;27.646;2023-04-03T08:44:50;26.20;;;19.60;;
6027;SDS011;3042;43.194;27.646;2023-04-03T08:47:27;19.87;;;18.00;;
6027;SDS011;3042;43.194;27.646;2023-04-03T08:50:04;21.53;;;19.70;;
6027;SDS011;3042;43.194;27.646;2023-04-03T08:52:35;69.87;;;26.70;;
6027;SDS011;3042;43.194;27.646;2023-04-03T08:55:10;21.63;;;19.90;;
6027;SDS011;3042;43.194;27.646;2023-04-03T08:57:47;20.13;;;18.63;;
6027;SDS011;3042;43.194;27.646;2023-04-03T09:00:17;36.07;;;24.50;;
6027;SDS011;3042;43.194;27.646;2023-04-03T09:02:46;22.83;;;20.50;;
6027;SDS011;3042;43.194;27.646;2023-04-03T09:05:15;21.70;;;20.13;;
6027;SDS011;3042;43.194;27.646;2023-04-03T09:07:45;25.80;;;24.00;;
6027;SDS011;3042;43.194;27.646;2023-04-03T09:10:19;21.27;;;19.90;;
6027;SDS011;3042;43.194;27.646;2023-04-03T09:12:54;20.13;;;18.53;;
6027;SDS011;3042;43.194;27.646;2023-04-03T09:15:25;21.07;;;19.47;;
6027;SDS011;3042;43.194;27.646;2023-04-03T09:17:55;18.60;;;17.50;;
6027;SDS011;3042;43.194;27.646;2023-04-03T09:20:28;21.00;;;19.30;;
6027;SDS011;3042;43.194;27.646;2023-04-03T09:23:09;26.73;;;20.73;;
6027;SDS011;3042;43.194;27.646;2023-04-03T09:25:46;20.43;;;18.80;;
6027;SDS011;3042;43.194;27.646;2023-04-03T09:28:13;21.13;;;19.83;;
6027;SDS011;3042;43.194;27.646;2023-04-03T09:30:40;21.50;;;19.90;;
6027;SDS011;3042;43.194;27.646;2023-04-03T09:33:07;21.60;;;19.90;;
6027;SDS011;3042;43.194;27.646;2023-04-03T09:35:36;22.27;;;19.87;;
6027;SDS011;3042;43.194;27.646;2023-04-03T09:38:14;21.47;;;19.57;;
6027;SDS011;3042;43.194;27.646;2023-04-03T09:40:44;26.23;;;23.00;;
6027;SDS011;3042;43.194;27.646;2023-04-03T09:43:21;24.03;;;21.83;;
6027;SDS011;3042;43.194;27.646;2023-04-03T09:45:51;23.13;;;21.30;;
6027;SDS011;3042;43.194;27.646;2023-04-03T09:48:19;22.73;;;20.97;;
6027;SDS011;3042;43.194;27.646;2023-04-03T09:50:58;28.93;;;22.73;;
6027;SDS011;3042;43.194;27.646;2023-04-03T09:53:35;23.73;;;22.03;;
6027;SDS011;3042;43.194;27.646;2023-04-03T09:56:05;21.37;;;19.87;;
6027;SDS011;3042;43.194;27.646;2023-04-03T09:58:47;25.97;;;23.77;;
6027;SDS011;3042;43.194;27.646;2023-04-03T10:01:26;23.53;;;21.43;;
6027;SDS011;3042;43.194;27.646;2023-04-03T10:04:05;23.13;;;21.33;;
6027;SDS011;3042;43.194;27.646;2023-04-03T10:06:35;60.83;;;27.23;;
6027;SDS011;3042;43.194;27.646;2023-04-03T10:09:06;20.10;;;18.90;;
6027;SDS011;3042;43.194;27.646;2023-04-03T10:12:03;24.40;;;22.20;;
6027;SDS011;3042;43.194;27.646;2023-04-03T10:14:32;26.10;;;22.27;;
6027;SDS011;3042;43.194;27.646;2023-04-03T10:17:12;43.27;;;22.13;;
6027;SDS011;3042;43.194;27.646;2023-04-03T10:19:46;41.63;;;23.43;;
6027;SDS011;3042;43.194;27.646;2023-04-03T10:22:20;35.17;;;22.43;;
6027;SDS011;3042;43.194;27.646;2023-04-03T10:24:58;23.73;;;21.30;;
6027;SDS011;3042;43.194;27.646;2023-04-03T10:27:35;53.97;;;23.90;;
6027;SDS011;3042;43.194;27.646;2023-04-03T10:30:19;50.67;;;23.30;;
6027;SDS011;3042;43.194;27.646;2023-04-03T10:32:58;47.47;;;20.40;;
6027;SDS011;3042;43.194;27.646;2023-04-03T10:35:37;24.47;;;22.20;;
6027;SDS011;3042;43.194;27.646;2023-04-03T10:38:13;23.90;;;21.60;;
6027;SDS011;3042;43.194;27.646;2023-04-03T10:40:47;32.80;;;25.13;;
6027;SDS011;3042;43.194;27.646;2023-04-03T10:43:25;22.00;;;20.60;;
6027;SDS011;3042;43.194;27.646;2023-04-03T10:46:00;41.50;;;22.90;;
6027;SDS011;3042;43.194;27.646;2023-04-03T10:48:33;27.63;;;24.70;;
6027;SDS011;3042;43.194;27.646;2023-04-03T10:51:10;29.47;;;22.47;;
6027;SDS011;3042;43.194;27.646;2023-04-03T10:53:44;23.70;;;21.80;;
6027;SDS011;3042;43.194;27.646;2023-04-03T10:56:18;22.60;;;21.00;;
6027;SDS011;3042;43.194;27.646;2023-04-03T10:58:54;28.37;;;20.83;;
6027;SDS011;3042;43.194;27.646;2023-04-03T11:01:27;32.00;;;22.70;;
6027;SDS011;3042;43.194;27.646;2023-04-03T11:03:59;24.23;;;22.20;;
6027;SDS011;3042;43.194;27.646;2023-04-03T11:06:31;54.23;;;25.03;;
6027;SDS011;3042;43.194;27.646;2023-04-03T11:09:04;34.53;;;20.57;;
6027;SDS011;3042;43.194;27.646;2023-04-03T11:11:37;23.93;;;21.30;;
6027;SDS011;3042;43.194;27.646;2023-04-03T11:14:11;46.57;;;22.07;;
6027;SDS011;3042;43.194;27.646;2023-04-03T11:16:45;37.63;;;34.63;;
6027;SDS011;3042;43.194;27.646;2023-04-03T11:19:15;56.77;;;23.27;;
6027;SDS011;3042;43.194;27.646;2023-04-03T11:21:51;21.20;;;19.60;;
6027;SDS011;3042;43.194;27.646;2023-04-03T11:24:24;22.13;;;20.03;;
6027;SDS011;3042;43.194;27.646;2023-04-03T11:26:53;30.07;;;21.20;;
6027;SDS011;3042;43.194;27.646;2023-04-03T11:29:24;23.20;;;21.40;;
6027;SDS011;3042;43.194;27.646;2023-04-03T11:32:02;26.80;;;24.60;;
6027;SDS011;3042;43.194;27.646;2023-04-03T11:34:39;23.00;;;21.30;;
6027;SDS011;3042;43.194;27.646;2023-04-03T11:37:12;23.87;;;21.53;;
6027;SDS011;3042;43.194;27.646;2023-04-03T11:39:47;22.83;;;20.87;;
6027;SDS011;3042;43.194;27.646;2023-04-03T11:42:25;22.30;;;20.50;;
6027;SDS011;3042;43.194;27.646;2023-04-03T11:45:22;22.67;;;21.17;;
6027;SDS011;3042;43.194;27.646;2023-04-03T11:48:02;21.60;;;19.90;;
6027;SDS011;3042;43.194;27.646;2023-04-03T11:50:31;20.43;;;19.20;;
6027;SDS011;3042;43.194;27.646;2023-04-03T11:53:29;19.70;;;18.57;;
6027;SDS011;3042;43.194;27.646;2023-04-03T11:56:02;23.70;;;20.20;;
6027;SDS011;3042;43.194;27.646;2023-04-03T12:01:45;27.80;;;23.43;;
6027;SDS011;3042;43.194;27.646;2023-04-03T12:04:14;22.57;;;20.00;;
6027;SDS011;3042;43.194;27.646;2023-04-03T12:09:54;21.70;;;20.10;;
6027;SDS011;3042;43.194;27.646;2023-04-03T12:12:28;52.87;;;20.83;;
6027;SDS011;3042;43.194;27.646;2023-04-03T12:15:20;20.13;;;18.93;;
6027;SDS011;3042;43.194;27.646;2023-04-03T12:17:51;22.53;;;18.97;;
6027;SDS011;3042;43.194;27.646;2023-04-03T12:23:24;28.13;;;22.53;;
6027;SDS011;3042;43.194;27.646;2023-04-03T12:25:53;22.33;;;20.63;;
6027;SDS011;3042;43.194;27.646;2023-04-03T12:28:28;25.23;;;20.60;;
6027;SDS011;3042;43.194;27.646;2023-04-03T12:30:55;22.90;;;20.53;;
6027;SDS011;3042;43.194;27.646;2023-04-03T12:33:30;21.13;;;19.40;;
6027;SDS011;3042;43.194;27.646;2023-04-03T12:36:08;42.37;;;20.60;;
6027;SDS011;3042;43.194;27.646;2023-04-03T12:38:49;22.07;;;20.43;;
6027;SDS011;3042;43.194;27.646;2023-04-03T12:41:29;23.13;;;21.10;;
6027;SDS011;3042;43.194;27.646;2023-04-03T12:44:17;22.90;;;19.40;;
6027;SDS011;3042;43.194;27.646;2023-04-03T12:47:02;24.87;;;22.83;;
6027;SDS011;3042;43.194;27.646;2023-04-03T12:49:48;23.37;;;21.20;;
6027;SDS011;3042;43.194;27.646;2023-04-03T12:52:18;21.63;;;20.17;;
6027;SDS011;3042;43.194;27.646;2023-04-03T12:54:49;43.20;;;20.90;;
6027;SDS011;3042;43.194;27.646;2023-04-03T12:57:18;37.87;;;21.10;;
6027;SDS011;3042;43.194;27.646;2023-04-03T12:59:46;23.13;;;19.70;;
6027;SDS011;3042;43.194;27.646;2023-04-03T13:02:23;28.93;;;20.90;;
6027;SDS011;3042;43.194;27.646;2023-04-03T13:04:54;25.50;;;23.53;;
6027;SDS011;3042;43.194;27.646;2023-04-03T13:07:25;21.10;;;19.50;;
6027;SDS011;3042;43.194;27.646;2023-04-03T13:09:57;22.03;;;20.33;;
6027;SDS011;3042;43.194;27.646;2023-04-03T13:12:26;27.43;;;21.20;;
6027;SDS011;3042;43.194;27.646;2023-04-03T13:14:54;32.53;;;24.57;;
6027;SDS011;3042;43.194;27.646;2023-04-03T13:17:23;80.93;;;25.90;;
6027;SDS011;3042;43.194;27.646;2023-04-03T13:19:50;20.90;;;19.23;;
6027;SDS011;3042;43.194;27.646;2023-04-03T13:22:23;23.23;;;21.00;;
6027;SDS011;3042;43.194;27.646;2023-04-03T13:24:56;21.23;;;19.73;;
6027;SDS011;3042;43.194;27.646;2023-04-03T13:27:26;21.93;;;19.93;;
6027;SDS011;3042;43.194;27.646;2023-04-03T13:29:54;54.00;;;22.10;;
6027;SDS011;3042;43.194;27.646;2023-04-03T13:32:24;23.43;;;21.63;;
6027;SDS011;3042;43.194;27.646;2023-04-03T13:34:54;58.80;;;24.23;;
6027;SDS011;3042;43.194;27.646;2023-04-03T13:37:22;22.80;;;20.90;;
6027;SDS011;3042;43.194;27.646;2023-04-03T13:39:59;67.87;;;25.03;;
6027;SDS011;3042;43.194;27.646;2023-04-03T13:42:29;29.73;;;22.20;;
6027;SDS011;3042;43.194;27.646;2023-04-03T13:48:06;22.30;;;20.60;;
6027;SDS011;3042;43.194;27.646;2023-04-03T13:50:55;19.47;;;18.37;;
6027;SDS011;3042;43.194;27.646;2023-04-03T13:53:25;109.23;;;25.90;;
6027;SDS011;3042;43.194;27.646;2023-04-03T13:55:54;26.53;;;20.60;;
6027;SDS011;3042;43.194;27.646;2023-04-03T13:58:31;22.07;;;20.57;;
6027;SDS011;3042;43.194;27.646;2023-04-03T14:01:01;22.33;;;20.73;;
6027;SDS011;3042;43.194;27.646;2023-04-03T14:03:39;22.77;;;21.03;;
6027;SDS011;3042;43.194;27.646;2023-04-03T14:06:11;24.13;;;20.40;;
6027;SDS011;3042;43.194;27.646;2023-04-03T14:08:39;22.47;;;20.77;;
6027;SDS011;3042;43.194;27.646;2023-04-03T14:11:08;22.27;;;20.67;;
6027;SDS011;3042;43.194;27.646;2023-04-03T14:13:39;21.40;;;20.07;;
6027;SDS011;3042;43.194;27.646;2023-04-03T14:16:06;23.90;;;21.60;;
6027;SDS011;3042;43.194;27.646;2023-04-03T14:18:33;22.47;;;20.90;;
6027;SDS011;3042;43.194;27.646;2023-04-03T14:21:01;23.33;;;21.50;;
6027;SDS011;3042;43.194;27.646;2023-04-03T14:23:30;23.00;;;20.90;;
6027;SDS011;3042;43.194;27.646;2023-04-03T14:25:58;21.77;;;20.27;;
6027;SDS011;3042;43.194;27.646;2023-04-03T14:28:25;22.70;;;21.10;;
6027;SDS011;3042;43.194;27.646;2023-04-03T14:30:52;30.23;;;21.23;;
6027;SDS011;3042;43.194;27.646;2023-04-03T14:33:20;21.17;;;19.67;;
6027;SDS011;3042;43.194;27.646;2023-04-03T14:35:48;24.63;;;22.40;;
6027;SDS011;3042;43.194;27.646;2023-04-03T14:38:23;22.80;;;21.00;;
6027;SDS011;3042;43.194;27.646;2023-04-03T14:40:53;24.00;;;20.60;;
6027;SDS011;3042;43.194;27.646;2023-04-03T14:43:21;24.10;;;21.47;;
6027;SDS011;3042;43.194;27.646;2023-04-03T14:45:48;29.63;;;22.53;;
6027;SDS011;3042;43.194;27.646;2023-04-03T14:48:17;39.87;;;24.77;;
6027;SDS011;3042;43.194;27.646;2023-04-03T14:50:46;33.87;;;28.90;;
6027;SDS011;3042;43.194;27.646;2023-04-03T14:53:14;25.53;;;23.67;;
6027;SDS011;3042;43.194;27.646;2023-04-03T14:55:42;27.37;;;24.63;;
6027;SDS011;3042;43.194;27.646;2023-04-03T14:58:15;30.00;;;27.20;;
6027;SDS011;3042;43.194;27.646;2023-04-03T15:00:43;30.07;;;27.17;;
6027;SDS011;3042;43.194;27.646;2023-04-03T15:03:14;31.20;;;28.47;;
6027;SDS011;3042;43.194;27.646;2023-04-03T15:05:43;30.87;;;27.83;;